sensor_id;sensor_type;location;lat;lon;timestamp;pressure;altitude;pressure_sealevel;temperature;humidity
25430;BME280;13360;48.152;-1.788;2024-03-02T00:00:07;99202.75;;;10.09;100.00
25430;BME280;13360;48.152;-1.788;2024-03-02T00:02:42;99215.41;;;10.11;100.00
25430;BME280;13360;48.152;-1.788;2024-03-02T00:05:07;99217.38;;;10.10;100.00
25430;BME280;13360;48.152;-1.788;2024-03-02T00:07:33;99221.25;;;10.09;100.00
25430;BME280;13360;48.152;-1.788;2024-03-02T00:09:58;99232.28;;;10.09;100.00
25430;BME280;13360;48.152;-1.788;2024-03-02T00:12:23;99219.69;;;9.91;100.00
25430;BME280;13360;48.152;-1.788;2024-03-02T00:14:48;99230.38;;;10.01;100.00
25430;BME280;13360;48.152;-1.788;2024-03-02T00:17:17;99226.31;;;10.07;100.00
25430;BME280;13360;48.152;-1.788;2024-03-02T00:19:46;99218.03;;;10.07;100.00
25430;BME280;13360;48.152;-1.788;2024-03-02T00:22:11;99205.38;;;10.06;100.00
25430;BME280;13360;48.152;-1.788;2024-03-02T00:24:36;99203.09;;;10.08;100.00
25430;BME280;13360;48.152;-1.788;2024-03-02T00:27:03;99199.19;;;10.09;100.00
25430;BME280;13360;48.152;-1.788;2024-03-02T00:29:29;99201.47;;;10.07;100.00
25430;BME280;13360;48.152;-1.788;2024-03-02T00:31:54;99189.81;;;10.01;100.00
25430;BME280;13360;48.152;-1.788;2024-03-02T00:34:20;99189.00;;;10.01;100.00
25430;BME280;13360;48.152;-1.788;2024-03-02T00:36:46;99179.75;;;9.97;100.00
25430;BME280;13360;48.152;-1.788;2024-03-02T00:39:12;99180.78;;;9.84;100.00
25430;BME280;13360;48.152;-1.788;2024-03-02T00:41:38;99166.16;;;9.92;100.00
25430;BME280;13360;48.152;-1.788;2024-03-02T00:44:12;99179.13;;;9.91;100.00
25430;BME280;13360;48.152;-1.788;2024-03-02T00:46:38;99176.19;;;9.96;100.00
25430;BME280;13360;48.152;-1.788;2024-03-02T00:49:25;99171.16;;;9.98;100.00
25430;BME280;13360;48.152;-1.788;2024-03-02T00:51:51;99172.63;;;10.04;100.00
25430;BME280;13360;48.152;-1.788;2024-03-02T00:54:20;99165.00;;;10.01;100.00
25430;BME280;13360;48.152;-1.788;2024-03-02T00:56:47;99149.91;;;9.99;100.00
25430;BME280;13360;48.152;-1.788;2024-03-02T00:59:12;99157.41;;;9.90;100.00
25430;BME280;13360;48.152;-1.788;2024-03-02T01:01:37;99163.22;;;9.97;100.00
25430;BME280;13360;48.152;-1.788;2024-03-02T01:04:03;99156.06;;;9.96;100.00
25430;BME280;13360;48.152;-1.788;2024-03-02T01:06:29;99149.56;;;9.62;100.00
25430;BME280;13360;48.152;-1.788;2024-03-02T01:08:54;99166.69;;;9.76;100.00
25430;BME280;13360;48.152;-1.788;2024-03-02T01:11:19;99166.88;;;9.80;100.00
25430;BME280;13360;48.152;-1.788;2024-03-02T01:13:46;99168.16;;;9.83;100.00
25430;BME280;13360;48.152;-1.788;2024-03-02T01:16:12;99166.53;;;9.82;100.00
25430;BME280;13360;48.152;-1.788;2024-03-02T01:18:37;99160.84;;;9.87;100.00
25430;BME280;13360;48.152;-1.788;2024-03-02T01:21:02;99164.72;;;9.86;100.00
25430;BME280;13360;48.152;-1.788;2024-03-02T01:23:28;99163.28;;;9.80;100.00
25430;BME280;13360;48.152;-1.788;2024-03-02T01:25:53;99164.91;;;9.81;100.00
25430;BME280;13360;48.152;-1.788;2024-03-02T01:28:19;99157.94;;;9.83;100.00
25430;BME280;13360;48.152;-1.788;2024-03-02T01:30:46;99156.47;;;9.86;100.00
25430;BME280;13360;48.152;-1.788;2024-03-02T01:33:11;99140.63;;;9.65;100.00
25430;BME280;13360;48.152;-1.788;2024-03-02T01:35:36;99143.53;;;9.69;100.00
25430;BME280;13360;48.152;-1.788;2024-03-02T01:38:02;99152.44;;;9.74;100.00
25430;BME280;13360;48.152;-1.788;2024-03-02T01:40:27;99133.28;;;9.78;100.00
25430;BME280;13360;48.152;-1.788;2024-03-02T01:42:53;99152.41;;;9.83;100.00
25430;BME280;13360;48.152;-1.788;2024-03-02T01:45:28;99137.03;;;9.73;100.00
25430;BME280;13360;48.152;-1.788;2024-03-02T01:47:53;99146.91;;;9.83;100.00
25430;BME280;13360;48.152;-1.788;2024-03-02T01:50:28;99146.59;;;9.76;100.00
25430;BME280;13360;48.152;-1.788;2024-03-02T01:52:54;99155.03;;;9.80;100.00
25430;BME280;13360;48.152;-1.788;2024-03-02T01:55:19;99153.56;;;9.73;100.00
25430;BME280;13360;48.152;-1.788;2024-03-02T01:57:45;99151.75;;;9.77;100.00
25430;BME280;13360;48.152;-1.788;2024-03-02T02:00:10;99150.47;;;9.75;100.00
25430;BME280;13360;48.152;-1.788;2024-03-02T02:02:36;99148.69;;;9.79;100.00
25430;BME280;13360;48.152;-1.788;2024-03-02T02:05:01;99126.00;;;9.73;100.00
25430;BME280;13360;48.152;-1.788;2024-03-02T02:07:26;99134.41;;;9.86;100.00
25430;BME280;13360;48.152;-1.788;2024-03-02T02:09:51;99128.41;;;9.84;100.00
25430;BME280;13360;48.152;-1.788;2024-03-02T02:12:17;99127.94;;;9.82;100.00
25430;BME280;13360;48.152;-1.788;2024-03-02T02:14:48;99136.00;;;9.87;100.00
25430;BME280;13360;48.152;-1.788;2024-03-02T02:17:15;99140.38;;;9.88;100.00
25430;BME280;13360;48.152;-1.788;2024-03-02T02:19:40;99139.38;;;9.92;100.00
25430;BME280;13360;48.152;-1.788;2024-03-02T02:22:06;99135.34;;;9.90;100.00
25430;BME280;13360;48.152;-1.788;2024-03-02T02:24:31;99134.41;;;9.86;100.00
25430;BME280;13360;48.152;-1.788;2024-03-02T02:26:56;99138.28;;;9.85;100.00
25430;BME280;13360;48.152;-1.788;2024-03-02T02:29:21;99134.09;;;9.78;100.00
25430;BME280;13360;48.152;-1.788;2024-03-02T02:31:46;99126.94;;;9.77;100.00
25430;BME280;13360;48.152;-1.788;2024-03-02T02:34:13;99125.00;;;9.78;100.00
25430;BME280;13360;48.152;-1.788;2024-03-02T02:36:38;99126.00;;;9.73;100.00
25430;BME280;13360;48.152;-1.788;2024-03-02T02:39:05;99128.56;;;9.78;100.00
25430;BME280;13360;48.152;-1.788;2024-03-02T02:41:32;99123.06;;;9.78;100.00
25430;BME280;13360;48.152;-1.788;2024-03-02T02:43:57;99121.44;;;9.77;100.00
25430;BME280;13360;48.152;-1.788;2024-03-02T02:46:22;99121.44;;;9.77;100.00
25430;BME280;13360;48.152;-1.788;2024-03-02T02:48:47;99114.97;;;9.73;100.00
25430;BME280;13360;48.152;-1.788;2024-03-02T02:51:13;99117.22;;;9.80;100.00
25430;BME280;13360;48.152;-1.788;2024-03-02T02:53:38;99108.16;;;9.80;100.00
25430;BME280;13360;48.152;-1.788;2024-03-02T02:56:06;99104.91;;;9.77;100.00
25430;BME280;13360;48.152;-1.788;2024-03-02T02:58:31;99113.16;;;9.77;100.00
25430;BME280;13360;48.152;-1.788;2024-03-02T03:00:56;99102.63;;;9.80;100.00
25430;BME280;13360;48.152;-1.788;2024-03-02T03:03:21;99096.31;;;9.79;100.00
25430;BME280;13360;48.152;-1.788;2024-03-02T03:05:47;99098.75;;;9.81;100.00
25430;BME280;13360;48.152;-1.788;2024-03-02T03:08:12;99093.72;;;9.74;100.00
25430;BME280;13360;48.152;-1.788;2024-03-02T03:10:37;99097.13;;;9.80;100.00
25430;BME280;13360;48.152;-1.788;2024-03-02T03:13:02;99092.09;;;9.73;100.00
25430;BME280;13360;48.152;-1.788;2024-03-02T03:15:27;99094.09;;;9.64;100.00
25430;BME280;13360;48.152;-1.788;2024-03-02T03:17:53;99078.66;;;9.71;100.00
25430;BME280;13360;48.152;-1.788;2024-03-02T03:20:18;99082.19;;;9.81;100.00
25430;BME280;13360;48.152;-1.788;2024-03-02T03:22:43;99085.44;;;9.83;100.00
25430;BME280;13360;48.152;-1.788;2024-03-02T03:25:09;99073.28;;;9.75;100.00
25430;BME280;13360;48.152;-1.788;2024-03-02T03:27:34;99081.22;;;9.76;100.00
25430;BME280;13360;48.152;-1.788;2024-03-02T03:29:59;99080.38;;;9.85;100.00
25430;BME280;13360;48.152;-1.788;2024-03-02T03:32:24;99077.63;;;9.85;100.00
25430;BME280;13360;48.152;-1.788;2024-03-02T03:34:50;99080.38;;;9.85;100.00
25430;BME280;13360;48.152;-1.788;2024-03-02T03:37:15;99080.06;;;9.86;100.00
25430;BME280;13360;48.152;-1.788;2024-03-02T03:39:40;99103.22;;;9.94;100.00
25430;BME280;13360;48.152;-1.788;2024-03-02T03:42:05;99114.22;;;9.94;100.00
25430;BME280;13360;48.152;-1.788;2024-03-02T03:44:31;99130.97;;;9.89;100.00
25430;BME280;13360;48.152;-1.788;2024-03-02T03:46:56;99137.97;;;9.77;100.00
25430;BME280;13360;48.152;-1.788;2024-03-02T03:49:22;99125.22;;;9.64;100.00
25430;BME280;13360;48.152;-1.788;2024-03-02T03:51:47;99150.69;;;9.61;100.00
25430;BME280;13360;48.152;-1.788;2024-03-02T03:54:12;99144.34;;;9.69;100.00
25430;BME280;13360;48.152;-1.788;2024-03-02T03:56:37;99144.72;;;9.59;100.00
25430;BME280;13360;48.152;-1.788;2024-03-02T03:59:03;99149.19;;;9.72;100.00
25430;BME280;13360;48.152;-1.788;2024-03-02T04:01:29;99142.22;;;9.75;100.00
25430;BME280;13360;48.152;-1.788;2024-03-02T04:03:54;99146.91;;;9.74;100.00
25430;BME280;13360;48.152;-1.788;2024-03-02T04:06:20;99137.69;;;9.79;100.00
25430;BME280;13360;48.152;-1.788;2024-03-02T04:08:45;99138.16;;;9.72;100.00
25430;BME280;13360;48.152;-1.788;2024-03-02T04:11:10;99139.78;;;9.82;100.00
25430;BME280;13360;48.152;-1.788;2024-03-02T04:13:35;99131.38;;;9.70;100.00
25430;BME280;13360;48.152;-1.788;2024-03-02T04:16:00;99136.69;;;9.84;100.00
25430;BME280;13360;48.152;-1.788;2024-03-02T04:18:26;99134.88;;;9.88;100.00
25430;BME280;13360;48.152;-1.788;2024-03-02T04:20:51;99121.41;;;9.86;100.00
25430;BME280;13360;48.152;-1.788;2024-03-02T04:23:16;99117.19;;;9.89;100.00
25430;BME280;13360;48.152;-1.788;2024-03-02T04:25:41;99104.53;;;9.88;100.00
25430;BME280;13360;48.152;-1.788;2024-03-02T04:28:06;99116.38;;;9.88;100.00
25430;BME280;13360;48.152;-1.788;2024-03-02T04:30:32;99114.91;;;9.91;100.00
25430;BME280;13360;48.152;-1.788;2024-03-02T04:32:57;99105.97;;;9.94;100.00
25430;BME280;13360;48.152;-1.788;2024-03-02T04:35:22;99103.53;;;9.92;100.00
25430;BME280;13360;48.152;-1.788;2024-03-02T04:37:47;99089.28;;;9.90;100.00
25430;BME280;13360;48.152;-1.788;2024-03-02T04:40:13;99080.88;;;9.87;100.00
25430;BME280;13360;48.152;-1.788;2024-03-02T04:42:38;99081.34;;;9.89;100.00
25430;BME280;13360;48.152;-1.788;2024-03-02T04:45:03;99068.22;;;9.86;100.00
25430;BME280;13360;48.152;-1.788;2024-03-02T04:47:28;99080.38;;;9.85;100.00
25430;BME280;13360;48.152;-1.788;2024-03-02T04:49:54;99080.72;;;9.83;100.00
25430;BME280;13360;48.152;-1.788;2024-03-02T04:52:19;99074.41;;;9.83;100.00
25430;BME280;13360;48.152;-1.788;2024-03-02T04:54:44;99070.38;;;9.80;100.00
25430;BME280;13360;48.152;-1.788;2024-03-02T04:57:28;99070.66;;;9.78;100.00
25430;BME280;13360;48.152;-1.788;2024-03-02T04:59:53;99085.09;;;9.84;100.00
25430;BME280;13360;48.152;-1.788;2024-03-02T05:02:18;99095.94;;;9.89;100.00
25430;BME280;13360;48.152;-1.788;2024-03-02T05:04:44;99100.78;;;9.92;100.00
25430;BME280;13360;48.152;-1.788;2024-03-02T05:07:09;99104.69;;;9.91;100.00
25430;BME280;13360;48.152;-1.788;2024-03-02T05:09:34;99095.94;;;9.89;100.00
25430;BME280;13360;48.152;-1.788;2024-03-02T05:12:00;99093.03;;;9.86;100.00
25430;BME280;13360;48.152;-1.788;2024-03-02T05:14:48;99084.28;;;9.84;100.00
25430;BME280;13360;48.152;-1.788;2024-03-02T05:17:13;99090.28;;;9.86;100.00
25430;BME280;13360;48.152;-1.788;2024-03-02T05:19:38;99098.22;;;9.87;100.00
25430;BME280;13360;48.152;-1.788;2024-03-02T05:22:04;99093.84;;;9.86;100.00
25430;BME280;13360;48.152;-1.788;2024-03-02T05:24:29;99089.47;;;9.85;100.00
25430;BME280;13360;48.152;-1.788;2024-03-02T05:26:54;99082.84;;;9.77;100.00
25430;BME280;13360;48.152;-1.788;2024-03-02T05:29:19;99099.38;;;9.77;100.00
25430;BME280;13360;48.152;-1.788;2024-03-02T05:31:45;99095.47;;;9.78;100.00
25430;BME280;13360;48.152;-1.788;2024-03-02T05:34:10;99088.53;;;9.72;100.00
25430;BME280;13360;48.152;-1.788;2024-03-02T05:36:36;99088.22;;;9.74;100.00
25430;BME280;13360;48.152;-1.788;2024-03-02T05:39:03;99092.25;;;9.76;100.00
25430;BME280;13360;48.152;-1.788;2024-03-02T05:41:30;99091.63;;;9.80;100.00
25430;BME280;13360;48.152;-1.788;2024-03-02T05:43:55;99101.50;;;9.81;100.00
25430;BME280;13360;48.152;-1.788;2024-03-02T05:46:20;99093.22;;;9.81;100.00
25430;BME280;13360;48.152;-1.788;2024-03-02T05:48:47;99103.13;;;9.82;100.00
25430;BME280;13360;48.152;-1.788;2024-03-02T05:51:12;99100.34;;;9.82;100.00
25430;BME280;13360;48.152;-1.788;2024-03-02T05:53:37;99108.63;;;9.82;100.00
25430;BME280;13360;48.152;-1.788;2024-03-02T05:56:03;99116.25;;;9.85;100.00
25430;BME280;13360;48.152;-1.788;2024-03-02T05:58:29;99111.19;;;9.87;100.00
25430;BME280;13360;48.152;-1.788;2024-03-02T06:01:11;99117.84;;;9.86;100.00
25430;BME280;13360;48.152;-1.788;2024-03-02T06:03:36;99113.94;;;9.87;100.00
25430;BME280;13360;48.152;-1.788;2024-03-02T06:06:01;99120.75;;;9.89;100.00
25430;BME280;13360;48.152;-1.788;2024-03-02T06:08:27;99121.22;;;9.91;100.00
25430;BME280;13360;48.152;-1.788;2024-03-02T06:10:52;99118.81;;;9.90;100.00
25430;BME280;13360;48.152;-1.788;2024-03-02T06:13:17;99116.03;;;9.90;100.00
25430;BME280;13360;48.152;-1.788;2024-03-02T06:15:42;99124.31;;;9.90;100.00
25430;BME280;13360;48.152;-1.788;2024-03-02T06:18:08;99122.38;;;9.90;100.00
25430;BME280;13360;48.152;-1.788;2024-03-02T06:20:33;99131.44;;;9.91;100.00
25430;BME280;13360;48.152;-1.788;2024-03-02T06:22:59;99126.75;;;9.91;100.00
25430;BME280;13360;48.152;-1.788;2024-03-02T06:25:24;99117.19;;;9.89;100.00
25430;BME280;13360;48.152;-1.788;2024-03-02T06:27:49;99123.38;;;9.86;100.00
25430;BME280;13360;48.152;-1.788;2024-03-02T06:30:14;99127.88;;;9.90;100.00
25430;BME280;13360;48.152;-1.788;2024-03-02T06:32:39;99127.69;;;9.95;100.00
25430;BME280;13360;48.152;-1.788;2024-03-02T06:35:05;99122.50;;;9.94;100.00
25430;BME280;13360;48.152;-1.788;2024-03-02T06:37:32;99127.06;;;9.90;100.00
25430;BME280;13360;48.152;-1.788;2024-03-02T06:39:57;99142.97;;;9.93;100.00
25430;BME280;13360;48.152;-1.788;2024-03-02T06:42:22;99148.28;;;9.98;100.00
25430;BME280;13360;48.152;-1.788;2024-03-02T06:44:49;99149.09;;;9.98;100.00
25430;BME280;13360;48.152;-1.788;2024-03-02T06:47:14;99147.00;;;9.95;100.00
25430;BME280;13360;48.152;-1.788;2024-03-02T06:49:41;99139.06;;;9.94;100.00
25430;BME280;13360;48.152;-1.788;2024-03-02T06:52:06;99133.72;;;9.89;100.00
25430;BME280;13360;48.152;-1.788;2024-03-02T06:54:32;99137.78;;;9.91;100.00
25430;BME280;13360;48.152;-1.788;2024-03-02T06:56:57;99137.09;;;9.94;100.00
25430;BME280;13360;48.152;-1.788;2024-03-02T06:59:22;99125.94;;;9.91;100.00
25430;BME280;13360;48.152;-1.788;2024-03-02T07:01:47;99125.78;;;9.87;100.00
25430;BME280;13360;48.152;-1.788;2024-03-02T07:04:13;99130.97;;;9.89;100.00
25430;BME280;13360;48.152;-1.788;2024-03-02T07:06:38;99124.84;;;9.83;100.00
25430;BME280;13360;48.152;-1.788;2024-03-02T07:09:03;99122.91;;;9.84;100.00
25430;BME280;13360;48.152;-1.788;2024-03-02T07:11:29;99120.47;;;9.82;100.00
25430;BME280;13360;48.152;-1.788;2024-03-02T07:13:54;99123.88;;;9.79;100.00
25430;BME280;13360;48.152;-1.788;2024-03-02T07:16:19;99132.47;;;9.77;100.00
25430;BME280;13360;48.152;-1.788;2024-03-02T07:18:53;99140.09;;;9.81;100.00
25430;BME280;13360;48.152;-1.788;2024-03-02T07:21:20;99120.75;;;10.19;100.00
25430;BME280;13360;48.152;-1.788;2024-03-02T07:23:47;99093.38;;;10.22;100.00
25430;BME280;13360;48.152;-1.788;2024-03-02T07:26:12;99068.53;;;10.22;100.00
25430;BME280;13360;48.152;-1.788;2024-03-02T07:28:37;99057.84;;;10.21;100.00
25430;BME280;13360;48.152;-1.788;2024-03-02T07:31:03;99031.19;;;10.46;100.00
25430;BME280;13360;48.152;-1.788;2024-03-02T07:33:29;99036.16;;;10.31;100.00
25430;BME280;13360;48.152;-1.788;2024-03-02T07:35:54;99038.72;;;10.36;100.00
25430;BME280;13360;48.152;-1.788;2024-03-02T07:38:20;99035.63;;;10.38;100.00
25430;BME280;13360;48.152;-1.788;2024-03-02T07:40:46;99039.66;;;10.41;100.00
25430;BME280;13360;48.152;-1.788;2024-03-02T07:43:11;99042.22;;;10.46;100.00
25430;BME280;13360;48.152;-1.788;2024-03-02T07:45:36;99043.84;;;10.47;100.00
25430;BME280;13360;48.152;-1.788;2024-03-02T07:48:02;99060.19;;;10.52;100.00
25430;BME280;13360;48.152;-1.788;2024-03-02T07:50:29;99055.28;;;10.57;100.00
25430;BME280;13360;48.152;-1.788;2024-03-02T07:52:55;99050.84;;;10.65;100.00
25430;BME280;13360;48.152;-1.788;2024-03-02T07:55:20;99052.94;;;10.68;100.00
25430;BME280;13360;48.152;-1.788;2024-03-02T07:57:45;99049.03;;;10.69;100.00
25430;BME280;13360;48.152;-1.788;2024-03-02T08:00:11;99047.75;;;10.66;100.00
25430;BME280;13360;48.152;-1.788;2024-03-02T08:02:36;99044.84;;;10.63;100.00
25430;BME280;13360;48.152;-1.788;2024-03-02T08:05:01;99046.81;;;10.62;100.00
25430;BME280;13360;48.152;-1.788;2024-03-02T08:07:27;99061.88;;;10.65;100.00
25430;BME280;13360;48.152;-1.788;2024-03-02T08:09:52;99065.13;;;10.67;100.00
25430;BME280;13360;48.152;-1.788;2024-03-02T08:12:17;99071.78;;;10.66;100.00
25430;BME280;13360;48.152;-1.788;2024-03-02T08:14:44;99060.78;;;10.57;100.00
25430;BME280;13360;48.152;-1.788;2024-03-02T08:17:09;99061.72;;;10.41;100.00
25430;BME280;13360;48.152;-1.788;2024-03-02T08:19:36;99066.50;;;10.31;100.00
25430;BME280;13360;48.152;-1.788;2024-03-02T08:22:02;99090.28;;;10.45;100.00
25430;BME280;13360;48.152;-1.788;2024-03-02T08:24:27;99137.25;;;10.86;100.00
25430;BME280;13360;48.152;-1.788;2024-03-02T08:26:52;99118.59;;;10.83;100.00
25430;BME280;13360;48.152;-1.788;2024-03-02T08:29:17;99143.03;;;10.93;100.00
25430;BME280;13360;48.152;-1.788;2024-03-02T08:31:43;99148.69;;;10.97;100.00
25430;BME280;13360;48.152;-1.788;2024-03-02T08:34:08;99170.03;;;11.09;100.00
25430;BME280;13360;48.152;-1.788;2024-03-02T08:36:34;99171.84;;;11.25;100.00
25430;BME280;13360;48.152;-1.788;2024-03-02T08:38:59;99173.38;;;11.35;100.00
25430;BME280;13360;48.152;-1.788;2024-03-02T08:41:24;99195.25;;;11.94;100.00
25430;BME280;13360;48.152;-1.788;2024-03-02T08:43:49;99116.31;;;11.64;100.00
25430;BME280;13360;48.152;-1.788;2024-03-02T08:46:15;99108.28;;;11.71;100.00
25430;BME280;13360;48.152;-1.788;2024-03-02T08:48:40;99096.09;;;11.84;100.00
25430;BME280;13360;48.152;-1.788;2024-03-02T08:51:05;99100.84;;;11.96;100.00
25430;BME280;13360;48.152;-1.788;2024-03-02T08:53:32;99086.41;;;12.02;100.00
25430;BME280;13360;48.152;-1.788;2024-03-02T08:55:58;99079.97;;;12.10;100.00
25430;BME280;13360;48.152;-1.788;2024-03-02T08:58:23;99067.97;;;12.18;100.00
25430;BME280;13360;48.152;-1.788;2024-03-02T09:00:48;99067.50;;;12.29;100.00
25430;BME280;13360;48.152;-1.788;2024-03-02T09:03:14;99070.16;;;12.37;100.00
25430;BME280;13360;48.152;-1.788;2024-03-02T09:05:39;99086.59;;;12.58;100.00
25430;BME280;13360;48.152;-1.788;2024-03-02T09:08:05;99097.56;;;12.95;100.00
25430;BME280;13360;48.152;-1.788;2024-03-02T09:10:30;99097.34;;;13.28;100.00
25430;BME280;13360;48.152;-1.788;2024-03-02T09:12:55;99074.03;;;13.45;100.00
25430;BME280;13360;48.152;-1.788;2024-03-02T09:15:21;99063.47;;;13.50;100.00
25430;BME280;13360;48.152;-1.788;2024-03-02T09:17:46;99058.28;;;13.64;100.00
25430;BME280;13360;48.152;-1.788;2024-03-02T09:20:11;99051.41;;;13.90;100.00
25430;BME280;13360;48.152;-1.788;2024-03-02T09:22:36;99054.22;;;14.25;100.00
25430;BME280;13360;48.152;-1.788;2024-03-02T09:25:02;99042.69;;;14.58;100.00
25430;BME280;13360;48.152;-1.788;2024-03-02T09:27:27;99038.53;;;14.87;100.00
25430;BME280;13360;48.152;-1.788;2024-03-02T09:29:52;99038.63;;;15.13;100.00
25430;BME280;13360;48.152;-1.788;2024-03-02T09:32:17;99027.41;;;15.29;100.00
25430;BME280;13360;48.152;-1.788;2024-03-02T09:34:42;99024.34;;;15.57;100.00
25430;BME280;13360;48.152;-1.788;2024-03-02T09:37:08;99013.59;;;15.78;100.00
25430;BME280;13360;48.152;-1.788;2024-03-02T09:39:33;99003.81;;;16.71;100.00
25430;BME280;13360;48.152;-1.788;2024-03-02T09:41:59;98998.97;;;17.01;100.00
25430;BME280;13360;48.152;-1.788;2024-03-02T09:44:25;99000.69;;;17.10;100.00
25430;BME280;13360;48.152;-1.788;2024-03-02T09:46:51;99011.69;;;15.82;100.00
25430;BME280;13360;48.152;-1.788;2024-03-02T09:49:16;99025.09;;;16.86;100.00
25430;BME280;13360;48.152;-1.788;2024-03-02T09:51:44;98988.81;;;17.20;100.00
25430;BME280;13360;48.152;-1.788;2024-03-02T09:54:11;98985.00;;;17.35;100.00
25430;BME280;13360;48.152;-1.788;2024-03-02T09:56:36;98985.97;;;17.53;100.00
25430;BME280;13360;48.152;-1.788;2024-03-02T09:59:01;98972.84;;;17.17;100.00
25430;BME280;13360;48.152;-1.788;2024-03-02T10:01:27;98993.94;;;17.55;100.00
25430;BME280;13360;48.152;-1.788;2024-03-02T10:03:52;99000.97;;;17.01;100.00
25430;BME280;13360;48.152;-1.788;2024-03-02T10:06:24;98982.13;;;16.87;100.00
25430;BME280;13360;48.152;-1.788;2024-03-02T10:08:50;98984.75;;;17.10;100.00
25430;BME280;13360;48.152;-1.788;2024-03-02T10:11:25;98987.53;;;17.10;100.00
25430;BME280;13360;48.152;-1.788;2024-03-02T10:13:56;98989.13;;;17.11;100.00
25430;BME280;13360;48.152;-1.788;2024-03-02T10:16:28;98986.06;;;17.23;100.00
25430;BME280;13360;48.152;-1.788;2024-03-02T10:18:53;98990.06;;;17.26;100.00
25430;BME280;13360;48.152;-1.788;2024-03-02T10:21:19;98987.38;;;17.33;100.00
25430;BME280;13360;48.152;-1.788;2024-03-02T10:23:44;98991.13;;;17.11;100.00
25430;BME280;13360;48.152;-1.788;2024-03-02T10:26:18;98988.44;;;16.84;100.00
25430;BME280;13360;48.152;-1.788;2024-03-02T10:28:47;98994.44;;;16.56;100.00
25430;BME280;13360;48.152;-1.788;2024-03-02T10:31:12;99008.97;;;16.42;100.00
25430;BME280;13360;48.152;-1.788;2024-03-02T10:33:38;99004.06;;;16.32;100.00
25430;BME280;13360;48.152;-1.788;2024-03-02T10:36:03;99004.53;;;16.38;100.00
25430;BME280;13360;48.152;-1.788;2024-03-02T10:38:29;98998.13;;;16.34;100.00
25430;BME280;13360;48.152;-1.788;2024-03-02T10:40:55;98993.69;;;16.29;100.00
25430;BME280;13360;48.152;-1.788;2024-03-02T10:43:23;99022.09;;;16.42;100.00
25430;BME280;13360;48.152;-1.788;2024-03-02T10:45:49;99026.44;;;16.39;100.00
25430;BME280;13360;48.152;-1.788;2024-03-02T10:48:14;99019.69;;;16.40;100.00
25430;BME280;13360;48.152;-1.788;2024-03-02T10:50:39;99006.75;;;16.25;100.00
25430;BME280;13360;48.152;-1.788;2024-03-02T10:53:04;99017.94;;;16.29;100.00
25430;BME280;13360;48.152;-1.788;2024-03-02T10:55:30;98996.34;;;16.22;100.00
25430;BME280;13360;48.152;-1.788;2024-03-02T10:57:56;99000.56;;;16.09;100.00
25430;BME280;13360;48.152;-1.788;2024-03-02T11:00:24;99011.47;;;15.95;100.00
25430;BME280;13360;48.152;-1.788;2024-03-02T11:02:52;99015.69;;;15.85;100.00
25430;BME280;13360;48.152;-1.788;2024-03-02T11:05:27;99015.94;;;15.76;100.00
25430;BME280;13360;48.152;-1.788;2024-03-02T11:07:53;99009.94;;;15.74;100.00
25430;BME280;13360;48.152;-1.788;2024-03-02T11:10:22;99008.25;;;15.66;100.00
25430;BME280;13360;48.152;-1.788;2024-03-02T11:12:56;99004.59;;;15.62;100.00
25430;BME280;13360;48.152;-1.788;2024-03-02T11:15:22;99009.25;;;15.58;100.00
25430;BME280;13360;48.152;-1.788;2024-03-02T11:17:50;99005.59;;;15.54;100.00
25430;BME280;13360;48.152;-1.788;2024-03-02T11:20:15;99010.31;;;15.50;100.00
25430;BME280;13360;48.152;-1.788;2024-03-02T11:22:41;99009.44;;;15.46;100.00
25430;BME280;13360;48.152;-1.788;2024-03-02T11:25:06;99004.44;;;15.55;100.00
25430;BME280;13360;48.152;-1.788;2024-03-02T11:32:56;99006.19;;;15.63;100.00
25430;BME280;13360;48.152;-1.788;2024-03-02T11:35:21;99002.63;;;15.63;100.00
25430;BME280;13360;48.152;-1.788;2024-03-02T11:37:48;99010.59;;;15.64;100.00
25430;BME280;13360;48.152;-1.788;2024-03-02T11:40:14;99012.84;;;15.59;100.00
25430;BME280;13360;48.152;-1.788;2024-03-02T11:42:39;99009.19;;;15.54;100.00
25430;BME280;13360;48.152;-1.788;2024-03-02T11:45:05;99000.03;;;15.54;100.00
25430;BME280;13360;48.152;-1.788;2024-03-02T11:47:33;99005.59;;;15.54;100.00
25430;BME280;13360;48.152;-1.788;2024-03-02T11:49:58;99004.38;;;15.51;100.00
25430;BME280;13360;48.152;-1.788;2024-03-02T11:52:24;99007.38;;;15.62;100.00
25430;BME280;13360;48.152;-1.788;2024-03-02T11:54:50;99000.31;;;15.68;100.00
25430;BME280;13360;48.152;-1.788;2024-03-02T11:57:17;98995.97;;;15.71;100.00
25430;BME280;13360;48.152;-1.788;2024-03-02T11:59:43;99006.97;;;15.87;100.00
25430;BME280;13360;48.152;-1.788;2024-03-02T12:02:14;98983.94;;;15.90;100.00
25430;BME280;13360;48.152;-1.788;2024-03-02T12:04:39;98994.34;;;15.93;100.00
25430;BME280;13360;48.152;-1.788;2024-03-02T12:07:05;98995.84;;;15.87;100.00
25430;BME280;13360;48.152;-1.788;2024-03-02T12:09:30;99002.59;;;15.85;100.00
25430;BME280;13360;48.152;-1.788;2024-03-02T12:12:05;98998.91;;;15.81;100.00
25430;BME280;13360;48.152;-1.788;2024-03-02T12:14:31;99013.28;;;15.83;100.00
25430;BME280;13360;48.152;-1.788;2024-03-02T12:16:56;99001.84;;;15.89;100.00
25430;BME280;13360;48.152;-1.788;2024-03-02T12:19:23;98999.56;;;15.98;100.00
25430;BME280;13360;48.152;-1.788;2024-03-02T12:21:48;98991.13;;;15.91;100.00
25430;BME280;13360;48.152;-1.788;2024-03-02T12:24:14;98999.91;;;15.93;100.00
25430;BME280;13360;48.152;-1.788;2024-03-02T12:26:39;99001.41;;;15.87;100.00
25430;BME280;13360;48.152;-1.788;2024-03-02T12:29:05;99007.28;;;15.81;100.00
25430;BME280;13360;48.152;-1.788;2024-03-02T12:31:30;99006.84;;;15.79;100.00
25430;BME280;13360;48.152;-1.788;2024-03-02T12:33:55;98999.72;;;15.82;100.00
25430;BME280;13360;48.152;-1.788;2024-03-02T12:36:21;98996.47;;;15.76;100.00
25430;BME280;13360;48.152;-1.788;2024-03-02T12:38:47;98998.88;;;15.78;100.00
25430;BME280;13360;48.152;-1.788;2024-03-02T12:41:15;98988.88;;;15.73;100.00
25430;BME280;13360;48.152;-1.788;2024-03-02T12:43:40;99003.56;;;15.74;100.00